Terminal Aerodrome Forecast
Issued by NWS

Home | Current Version | Previous Version | Text Only | Print | Product List | Glossary On
Versions: 1 2 3 4 5 6 7 8 9 10 11 12 13
475
FTUS44 KTSA 161120
TAFXNA
TAF
KXNA 161120Z 1612/1712 21006KT P6SM FEW250
     FM161600 20014G23KT P6SM SCT150
     FM170000 18010KT P6SM BKN050
     FM170600 18009KT P6SM VCSH BKN025 OVC040
     FM170800 17009KT 4SM -RA BR OVC015=

USA.gov is the U.S. government's official web portal to all federal, state and local government web resources and services.